Terminal Aerodrome Forecast
Issued by NWS

Home | Current Version | Previous Version | Text Only | Print | Product List | Glossary On
Versions: 1 2 3 4 5 6 7 8 9 10 11 12 13 14 15 16 17 18 19
000
FTUS44 KTSA 191100
TAFMLC
TAF
KMLC 191133Z 1912/2012 00000KT P6SM BKN250
     FM191900 24006KT P6SM VCTS BKN025CB
      TEMPO 1920/1924 2SM TSRA BR BKN025CB
     FM200000 30012G22KT P6SM BKN050
     FM200600 35010G17KT P6SM SKC=

USA.gov is the U.S. government's official web portal to all federal, state and local government web resources and services.